sensor_id;sensor_type;location;lat;lon;timestamp;P1;durP1;ratioP1;P2;durP2;ratioP2
41623;SDS011;27319;50.306;18.926;2023-10-13T00:04:09;19.60;;;12.15;;
41623;SDS011;27319;50.306;18.926;2023-10-13T00:08:10;19.52;;;10.48;;
41623;SDS011;27319;50.306;18.926;2023-10-13T00:12:10;17.70;;;10.73;;
41623;SDS011;27319;50.306;18.926;2023-10-13T00:16:11;17.38;;;11.18;;
41623;SDS011;27319;50.306;18.926;2023-10-13T00:20:23;16.25;;;9.82;;
41623;SDS011;27319;50.306;18.926;2023-10-13T00:24:24;16.67;;;10.70;;
41623;SDS011;27319;50.306;18.926;2023-10-13T00:28:25;18.95;;;10.32;;
41623;SDS011;27319;50.306;18.926;2023-10-13T00:32:08;15.65;;;10.15;;
41623;SDS011;27319;50.306;18.926;2023-10-13T00:36:09;16.63;;;10.45;;
41623;SDS011;27319;50.306;18.926;2023-10-13T00:40:09;21.20;;;11.20;;
41623;SDS011;27319;50.306;18.926;2023-10-13T00:44:13;18.45;;;10.65;;
41623;SDS011;27319;50.306;18.926;2023-10-13T00:48:13;21.15;;;11.25;;
41623;SDS011;27319;50.306;18.926;2023-10-13T00:52:14;21.48;;;11.00;;
41623;SDS011;27319;50.306;18.926;2023-10-13T00:56:14;17.40;;;10.18;;
41623;SDS011;27319;50.306;18.926;2023-10-13T01:00:18;17.95;;;9.85;;
41623;SDS011;27319;50.306;18.926;2023-10-13T01:04:18;18.52;;;10.43;;
41623;SDS011;27319;50.306;18.926;2023-10-13T01:08:30;20.30;;;10.95;;
41623;SDS011;27319;50.306;18.926;2023-10-13T01:12:32;16.65;;;9.93;;
41623;SDS011;27319;50.306;18.926;2023-10-13T01:16:32;21.30;;;10.32;;
41623;SDS011;27319;50.306;18.926;2023-10-13T01:20:33;16.45;;;9.88;;
41623;SDS011;27319;50.306;18.926;2023-10-13T01:24:34;22.52;;;11.30;;
41623;SDS011;27319;50.306;18.926;2023-10-13T01:28:35;19.20;;;9.15;;
41623;SDS011;27319;50.306;18.926;2023-10-13T01:32:38;16.63;;;9.20;;
41623;SDS011;27319;50.306;18.926;2023-10-13T01:36:42;21.30;;;11.50;;
41623;SDS011;27319;50.306;18.926;2023-10-13T01:40:43;17.45;;;9.60;;
41623;SDS011;27319;50.306;18.926;2023-10-13T01:44:46;19.15;;;10.23;;
41623;SDS011;27319;50.306;18.926;2023-10-13T01:48:47;16.48;;;10.30;;
41623;SDS011;27319;50.306;18.926;2023-10-13T01:52:47;19.42;;;10.20;;
41623;SDS011;27319;50.306;18.926;2023-10-13T01:56:48;19.17;;;10.55;;
41623;SDS011;27319;50.306;18.926;2023-10-13T02:00:49;15.80;;;9.95;;
41623;SDS011;27319;50.306;18.926;2023-10-13T02:04:50;18.05;;;9.98;;
41623;SDS011;27319;50.306;18.926;2023-10-13T02:08:50;22.05;;;11.68;;
41623;SDS011;27319;50.306;18.926;2023-10-13T02:12:51;23.77;;;10.52;;
41623;SDS011;27319;50.306;18.926;2023-10-13T02:16:52;19.67;;;11.35;;
41623;SDS011;27319;50.306;18.926;2023-10-13T02:20:56;19.80;;;11.23;;
41623;SDS011;27319;50.306;18.926;2023-10-13T02:24:53;20.67;;;10.95;;
41623;SDS011;27319;50.306;18.926;2023-10-13T02:29:00;18.17;;;10.63;;
41623;SDS011;27319;50.306;18.926;2023-10-13T02:33:00;20.38;;;10.77;;
41623;SDS011;27319;50.306;18.926;2023-10-13T02:37:01;19.63;;;10.20;;
41623;SDS011;27319;50.306;18.926;2023-10-13T02:41:02;21.67;;;12.30;;
41623;SDS011;27319;50.306;18.926;2023-10-13T02:45:03;18.67;;;11.95;;
41623;SDS011;27319;50.306;18.926;2023-10-13T02:49:03;20.52;;;11.25;;
41623;SDS011;27319;50.306;18.926;2023-10-13T02:53:04;19.17;;;11.95;;
41623;SDS011;27319;50.306;18.926;2023-10-13T02:57:05;19.35;;;12.07;;
41623;SDS011;27319;50.306;18.926;2023-10-13T03:00:06;18.77;;;12.23;;
41623;SDS011;27319;50.306;18.926;2023-10-13T03:06:56;18.90;;;11.88;;
41623;SDS011;27319;50.306;18.926;2023-10-13T03:10:57;24.83;;;12.93;;
41623;SDS011;27319;50.306;18.926;2023-10-13T03:14:57;17.42;;;11.95;;
41623;SDS011;27319;50.306;18.926;2023-10-13T03:18:58;20.58;;;12.43;;
41623;SDS011;27319;50.306;18.926;2023-10-13T03:22:59;23.75;;;12.98;;
41623;SDS011;27319;50.306;18.926;2023-10-13T03:27:00;27.90;;;14.73;;
41623;SDS011;27319;50.306;18.926;2023-10-13T03:31:00;19.25;;;12.43;;
41623;SDS011;27319;50.306;18.926;2023-10-13T03:35:01;18.70;;;11.45;;
41623;SDS011;27319;50.306;18.926;2023-10-13T03:39:04;22.27;;;11.25;;
41623;SDS011;27319;50.306;18.926;2023-10-13T03:43:05;24.45;;;13.52;;
41623;SDS011;27319;50.306;18.926;2023-10-13T03:47:06;22.65;;;11.85;;
41623;SDS011;27319;50.306;18.926;2023-10-13T03:51:06;21.58;;;12.07;;
41623;SDS011;27319;50.306;18.926;2023-10-13T03:55:07;21.75;;;12.98;;
41623;SDS011;27319;50.306;18.926;2023-10-13T03:59:08;23.27;;;12.98;;
41623;SDS011;27319;50.306;18.926;2023-10-13T04:03:08;25.58;;;12.55;;
41623;SDS011;27319;50.306;18.926;2023-10-13T04:07:18;19.60;;;12.32;;
41623;SDS011;27319;50.306;18.926;2023-10-13T04:11:17;18.33;;;10.88;;
41623;SDS011;27319;50.306;18.926;2023-10-13T04:15:03;22.23;;;13.25;;
41623;SDS011;27319;50.306;18.926;2023-10-13T04:19:04;22.73;;;14.05;;
41623;SDS011;27319;50.306;18.926;2023-10-13T04:23:03;23.40;;;13.07;;
41623;SDS011;27319;50.306;18.926;2023-10-13T04:27:04;28.35;;;12.98;;
41623;SDS011;27319;50.306;18.926;2023-10-13T04:31:04;19.35;;;12.13;;
41623;SDS011;27319;50.306;18.926;2023-10-13T04:35:08;19.88;;;12.10;;
41623;SDS011;27319;50.306;18.926;2023-10-13T04:39:08;17.45;;;11.40;;
41623;SDS011;27319;50.306;18.926;2023-10-13T04:43:09;22.90;;;13.20;;
41623;SDS011;27319;50.306;18.926;2023-10-13T04:47:18;21.60;;;12.65;;
41623;SDS011;27319;50.306;18.926;2023-10-13T04:51:18;20.35;;;11.77;;
41623;SDS011;27319;50.306;18.926;2023-10-13T04:55:22;17.48;;;11.35;;
41623;SDS011;27319;50.306;18.926;2023-10-13T04:59:02;18.85;;;11.85;;
41623;SDS011;27319;50.306;18.926;2023-10-13T05:03:03;19.08;;;12.05;;
41623;SDS011;27319;50.306;18.926;2023-10-13T05:07:03;23.23;;;12.68;;
41623;SDS011;27319;50.306;18.926;2023-10-13T05:11:16;20.48;;;11.10;;
41623;SDS011;27319;50.306;18.926;2023-10-13T05:15:15;21.02;;;11.95;;
41623;SDS011;27319;50.306;18.926;2023-10-13T05:22:53;21.02;;;10.63;;
41623;SDS011;27319;50.306;18.926;2023-10-13T05:26:53;18.17;;;11.27;;
41623;SDS011;27319;50.306;18.926;2023-10-13T05:34:31;19.67;;;11.57;;
41623;SDS011;27319;50.306;18.926;2023-10-13T05:41:30;19.75;;;11.23;;
41623;SDS011;27319;50.306;18.926;2023-10-13T05:45:30;22.40;;;12.23;;
41623;SDS011;27319;50.306;18.926;2023-10-13T09:17:42;15.82;;;6.72;;
41623;SDS011;27319;50.306;18.926;2023-10-13T09:20:58;16.73;;;6.22;;
41623;SDS011;27319;50.306;18.926;2023-10-13T09:24:38;16.92;;;6.82;;
41623;SDS011;27319;50.306;18.926;2023-10-13T09:28:39;21.17;;;7.43;;
41623;SDS011;27319;50.306;18.926;2023-10-13T09:32:39;15.35;;;8.55;;
41623;SDS011;27319;50.306;18.926;2023-10-13T09:36:49;12.63;;;6.13;;
41623;SDS011;27319;50.306;18.926;2023-10-13T09:40:50;12.15;;;7.38;;
41623;SDS011;27319;50.306;18.926;2023-10-13T09:44:51;12.05;;;6.63;;
41623;SDS011;27319;50.306;18.926;2023-10-13T09:48:57;11.98;;;5.88;;
41623;SDS011;27319;50.306;18.926;2023-10-13T09:53:07;10.32;;;6.45;;
41623;SDS011;27319;50.306;18.926;2023-10-13T09:57:12;16.83;;;6.13;;
41623;SDS011;27319;50.306;18.926;2023-10-13T10:01:11;13.88;;;5.88;;
41623;SDS011;27319;50.306;18.926;2023-10-13T10:05:12;14.15;;;5.68;;
41623;SDS011;27319;50.306;18.926;2023-10-13T10:09:12;10.90;;;5.05;;
41623;SDS011;27319;50.306;18.926;2023-10-13T10:13:15;10.52;;;5.88;;
41623;SDS011;27319;50.306;18.926;2023-10-13T10:17:20;13.77;;;5.32;;
41623;SDS011;27319;50.306;18.926;2023-10-13T10:21:32;15.90;;;5.45;;
41623;SDS011;27319;50.306;18.926;2023-10-13T10:25:30;14.88;;;4.63;;
41623;SDS011;27319;50.306;18.926;2023-10-13T10:29:30;9.88;;;4.50;;
41623;SDS011;27319;50.306;18.926;2023-10-13T10:33:34;10.35;;;4.45;;
41623;SDS011;27319;50.306;18.926;2023-10-13T10:37:34;14.48;;;6.95;;
41623;SDS011;27319;50.306;18.926;2023-10-13T10:41:44;10.05;;;4.30;;
41623;SDS011;27319;50.306;18.926;2023-10-13T10:45:48;10.63;;;5.50;;
41623;SDS011;27319;50.306;18.926;2023-10-13T10:49:36;7.18;;;4.88;;
41623;SDS011;27319;50.306;18.926;2023-10-13T10:53:41;12.10;;;4.68;;
41623;SDS011;27319;50.306;18.926;2023-10-13T10:57:41;10.38;;;4.68;;
41623;SDS011;27319;50.306;18.926;2023-10-13T11:01:51;14.50;;;4.15;;
41623;SDS011;27319;50.306;18.926;2023-10-13T11:05:52;9.60;;;4.57;;
41623;SDS011;27319;50.306;18.926;2023-10-13T11:09:53;15.38;;;4.80;;
41623;SDS011;27319;50.306;18.926;2023-10-13T11:13:53;11.45;;;5.10;;
41623;SDS011;27319;50.306;18.926;2023-10-13T11:18:00;12.18;;;5.45;;
41623;SDS011;27319;50.306;18.926;2023-10-13T11:25:31;9.27;;;4.68;;
41623;SDS011;27319;50.306;18.926;2023-10-13T11:29:37;10.65;;;5.00;;
41623;SDS011;27319;50.306;18.926;2023-10-13T11:33:43;7.07;;;4.10;;
41623;SDS011;27319;50.306;18.926;2023-10-13T11:37:41;8.88;;;4.32;;
41623;SDS011;27319;50.306;18.926;2023-10-13T11:41:48;11.25;;;4.47;;
41623;SDS011;27319;50.306;18.926;2023-10-13T11:45:48;9.98;;;4.63;;
41623;SDS011;27319;50.306;18.926;2023-10-13T11:49:38;11.00;;;4.47;;
41623;SDS011;27319;50.306;18.926;2023-10-13T11:53:41;7.47;;;4.22;;
41623;SDS011;27319;50.306;18.926;2023-10-13T11:57:42;8.23;;;4.18;;
41623;SDS011;27319;50.306;18.926;2023-10-13T12:01:49;7.22;;;3.90;;
41623;SDS011;27319;50.306;18.926;2023-10-13T12:05:26;7.93;;;4.50;;
41623;SDS011;27319;50.306;18.926;2023-10-13T12:09:26;6.95;;;4.03;;
41623;SDS011;27319;50.306;18.926;2023-10-13T12:13:27;11.75;;;4.85;;
41623;SDS011;27319;50.306;18.926;2023-10-13T12:17:42;8.90;;;5.80;;
41623;SDS011;27319;50.306;18.926;2023-10-13T12:21:43;11.52;;;5.40;;
41623;SDS011;27319;50.306;18.926;2023-10-13T12:25:50;12.35;;;5.10;;
41623;SDS011;27319;50.306;18.926;2023-10-13T12:29:53;10.13;;;4.40;;
41623;SDS011;27319;50.306;18.926;2023-10-13T12:33:56;9.18;;;4.57;;
41623;SDS011;27319;50.306;18.926;2023-10-13T12:37:55;8.05;;;4.68;;
41623;SDS011;27319;50.306;18.926;2023-10-13T12:41:48;8.65;;;4.03;;
41623;SDS011;27319;50.306;18.926;2023-10-13T12:45:48;12.10;;;4.68;;
41623;SDS011;27319;50.306;18.926;2023-10-13T12:49:47;9.75;;;4.55;;
41623;SDS011;27319;50.306;18.926;2023-10-13T12:53:48;6.53;;;3.92;;
41623;SDS011;27319;50.306;18.926;2023-10-13T12:57:49;6.80;;;3.85;;
41623;SDS011;27319;50.306;18.926;2023-10-13T13:01:50;9.57;;;5.00;;
41623;SDS011;27319;50.306;18.926;2023-10-13T13:05:50;7.75;;;3.83;;
41623;SDS011;27319;50.306;18.926;2023-10-13T13:09:51;9.43;;;4.00;;
41623;SDS011;27319;50.306;18.926;2023-10-13T13:13:58;11.75;;;3.90;;
41623;SDS011;27319;50.306;18.926;2023-10-13T13:17:58;9.57;;;4.15;;
41623;SDS011;27319;50.306;18.926;2023-10-13T13:21:59;7.18;;;3.78;;
41623;SDS011;27319;50.306;18.926;2023-10-13T13:26:00;8.75;;;4.63;;
41623;SDS011;27319;50.306;18.926;2023-10-13T13:30:01;12.13;;;4.53;;
41623;SDS011;27319;50.306;18.926;2023-10-13T13:34:02;6.00;;;4.13;;
41623;SDS011;27319;50.306;18.926;2023-10-13T13:38:03;9.95;;;4.05;;
41623;SDS011;27319;50.306;18.926;2023-10-13T13:42:04;8.02;;;3.90;;
41623;SDS011;27319;50.306;18.926;2023-10-13T13:46:04;9.63;;;4.50;;
41623;SDS011;27319;50.306;18.926;2023-10-13T13:50:05;10.82;;;4.63;;
41623;SDS011;27319;50.306;18.926;2023-10-13T13:54:06;9.98;;;4.38;;
41623;SDS011;27319;50.306;18.926;2023-10-13T13:58:06;10.88;;;4.50;;
41623;SDS011;27319;50.306;18.926;2023-10-13T14:02:07;6.57;;;3.70;;
41623;SDS011;27319;50.306;18.926;2023-10-13T14:06:09;6.28;;;3.30;;
41623;SDS011;27319;50.306;18.926;2023-10-13T14:09:17;6.63;;;3.38;;
41623;SDS011;27319;50.306;18.926;2023-10-13T14:13:18;4.28;;;2.85;;
41623;SDS011;27319;50.306;18.926;2023-10-13T14:17:18;9.07;;;3.42;;
41623;SDS011;27319;50.306;18.926;2023-10-13T14:21:05;10.57;;;3.33;;
41623;SDS011;27319;50.306;18.926;2023-10-13T14:24:57;8.30;;;4.07;;
41623;SDS011;27319;50.306;18.926;2023-10-13T14:28:58;7.13;;;3.00;;
41623;SDS011;27319;50.306;18.926;2023-10-13T14:33:01;6.93;;;2.90;;
41623;SDS011;27319;50.306;18.926;2023-10-13T14:37:02;6.82;;;3.78;;
41623;SDS011;27319;50.306;18.926;2023-10-13T14:41:03;12.80;;;3.45;;
41623;SDS011;27319;50.306;18.926;2023-10-13T14:45:04;7.90;;;3.47;;
41623;SDS011;27319;50.306;18.926;2023-10-13T14:49:05;6.60;;;3.53;;
41623;SDS011;27319;50.306;18.926;2023-10-13T14:53:05;6.47;;;3.75;;
41623;SDS011;27319;50.306;18.926;2023-10-13T14:57:06;8.65;;;4.80;;
41623;SDS011;27319;50.306;18.926;2023-10-13T15:01:17;10.35;;;4.72;;
41623;SDS011;27319;50.306;18.926;2023-10-13T15:05:14;15.52;;;6.47;;
41623;SDS011;27319;50.306;18.926;2023-10-13T15:09:14;9.02;;;4.95;;
41623;SDS011;27319;50.306;18.926;2023-10-13T15:13:15;10.25;;;5.07;;
41623;SDS011;27319;50.306;18.926;2023-10-13T15:17:18;7.70;;;4.03;;
41623;SDS011;27319;50.306;18.926;2023-10-13T15:21:19;12.02;;;5.38;;
41623;SDS011;27319;50.306;18.926;2023-10-13T15:25:20;12.00;;;4.45;;
41623;SDS011;27319;50.306;18.926;2023-10-13T15:29:20;10.27;;;4.50;;
41623;SDS011;27319;50.306;18.926;2023-10-13T15:33:21;7.45;;;4.82;;
41623;SDS011;27319;50.306;18.926;2023-10-13T15:37:22;10.93;;;4.72;;
41623;SDS011;27319;50.306;18.926;2023-10-13T15:41:23;12.77;;;4.53;;
41623;SDS011;27319;50.306;18.926;2023-10-13T15:45:23;12.98;;;4.45;;
41623;SDS011;27319;50.306;18.926;2023-10-13T15:49:24;8.80;;;4.43;;
41623;SDS011;27319;50.306;18.926;2023-10-13T15:53:25;13.63;;;5.63;;
41623;SDS011;27319;50.306;18.926;2023-10-13T15:57:26;10.55;;;5.35;;
41623;SDS011;27319;50.306;18.926;2023-10-13T16:01:27;11.93;;;5.93;;
41623;SDS011;27319;50.306;18.926;2023-10-13T16:05:31;12.30;;;5.68;;
41623;SDS011;27319;50.306;18.926;2023-10-13T16:09:31;12.82;;;5.80;;
41623;SDS011;27319;50.306;18.926;2023-10-13T16:13:31;15.13;;;6.18;;
41623;SDS011;27319;50.306;18.926;2023-10-13T16:17:32;10.82;;;5.28;;
41623;SDS011;27319;50.306;18.926;2023-10-13T16:21:33;12.50;;;5.03;;
41623;SDS011;27319;50.306;18.926;2023-10-13T16:25:34;10.45;;;5.75;;
41623;SDS011;27319;50.306;18.926;2023-10-13T16:29:35;9.45;;;5.50;;
41623;SDS011;27319;50.306;18.926;2023-10-13T16:33:35;13.40;;;6.25;;
41623;SDS011;27319;50.306;18.926;2023-10-13T16:37:36;18.90;;;8.00;;
41623;SDS011;27319;50.306;18.926;2023-10-13T16:41:37;12.48;;;6.75;;
41623;SDS011;27319;50.306;18.926;2023-10-13T16:45:37;13.30;;;7.75;;
41623;SDS011;27319;50.306;18.926;2023-10-13T16:49:38;16.33;;;7.93;;
41623;SDS011;27319;50.306;18.926;2023-10-13T16:53:39;18.15;;;8.13;;
41623;SDS011;27319;50.306;18.926;2023-10-13T16:57:40;12.07;;;7.15;;
41623;SDS011;27319;50.306;18.926;2023-10-13T17:01:41;21.00;;;8.75;;
41623;SDS011;27319;50.306;18.926;2023-10-13T17:05:42;15.30;;;8.25;;
41623;SDS011;27319;50.306;18.926;2023-10-13T17:09:42;16.23;;;8.32;;
41623;SDS011;27319;50.306;18.926;2023-10-13T17:13:44;15.55;;;10.10;;
41623;SDS011;27319;50.306;18.926;2023-10-13T17:17:45;14.65;;;7.43;;
41623;SDS011;27319;50.306;18.926;2023-10-13T17:21:45;13.60;;;7.85;;
41623;SDS011;27319;50.306;18.926;2023-10-13T17:25:45;12.93;;;7.63;;
41623;SDS011;27319;50.306;18.926;2023-10-13T17:29:46;13.50;;;7.95;;
41623;SDS011;27319;50.306;18.926;2023-10-13T17:33:47;13.30;;;7.80;;
41623;SDS011;27319;50.306;18.926;2023-10-13T17:37:48;15.68;;;8.02;;
41623;SDS011;27319;50.306;18.926;2023-10-13T17:41:48;13.45;;;7.30;;
41623;SDS011;27319;50.306;18.926;2023-10-13T17:45:49;13.98;;;7.97;;
41623;SDS011;27319;50.306;18.926;2023-10-13T17:49:50;10.77;;;6.95;;
41623;SDS011;27319;50.306;18.926;2023-10-13T17:53:50;19.00;;;7.60;;
41623;SDS011;27319;50.306;18.926;2023-10-13T17:57:51;13.93;;;6.97;;
41623;SDS011;27319;50.306;18.926;2023-10-13T18:01:52;13.65;;;7.65;;
41623;SDS011;27319;50.306;18.926;2023-10-13T18:05:59;12.32;;;7.45;;
41623;SDS011;27319;50.306;18.926;2023-10-13T18:10:03;16.77;;;7.35;;
41623;SDS011;27319;50.306;18.926;2023-10-13T18:14:03;17.60;;;6.90;;
41623;SDS011;27319;50.306;18.926;2023-10-13T18:18:04;12.98;;;7.43;;
41623;SDS011;27319;50.306;18.926;2023-10-13T18:22:05;14.27;;;7.50;;
41623;SDS011;27319;50.306;18.926;2023-10-13T18:26:06;12.63;;;6.78;;
41623;SDS011;27319;50.306;18.926;2023-10-13T18:30:07;14.77;;;7.38;;
41623;SDS011;27319;50.306;18.926;2023-10-13T18:34:08;16.40;;;7.00;;
41623;SDS011;27319;50.306;18.926;2023-10-13T18:38:08;18.25;;;8.55;;
41623;SDS011;27319;50.306;18.926;2023-10-13T18:42:09;13.93;;;7.20;;
41623;SDS011;27319;50.306;18.926;2023-10-13T18:46:10;15.57;;;8.35;;
41623;SDS011;27319;50.306;18.926;2023-10-13T18:50:11;17.83;;;7.38;;
41623;SDS011;27319;50.306;18.926;2023-10-13T18:54:11;15.07;;;7.38;;
41623;SDS011;27319;50.306;18.926;2023-10-13T18:58:12;14.18;;;8.15;;
41623;SDS011;27319;50.306;18.926;2023-10-13T19:02:16;12.15;;;8.02;;
41623;SDS011;27319;50.306;18.926;2023-10-13T19:06:17;13.55;;;6.28;;
41623;SDS011;27319;50.306;18.926;2023-10-13T19:10:17;15.15;;;6.15;;
41623;SDS011;27319;50.306;18.926;2023-10-13T19:14:18;16.30;;;6.70;;
41623;SDS011;27319;50.306;18.926;2023-10-13T19:18:19;14.88;;;6.55;;
41623;SDS011;27319;50.306;18.926;2023-10-13T19:22:20;9.45;;;6.10;;
41623;SDS011;27319;50.306;18.926;2023-10-13T19:26:21;14.70;;;7.13;;
41623;SDS011;27319;50.306;18.926;2023-10-13T19:30:21;12.70;;;6.78;;
41623;SDS011;27319;50.306;18.926;2023-10-13T19:34:22;11.75;;;7.00;;
41623;SDS011;27319;50.306;18.926;2023-10-13T19:38:23;17.75;;;7.10;;
41623;SDS011;27319;50.306;18.926;2023-10-13T19:42:23;15.85;;;6.70;;
41623;SDS011;27319;50.306;18.926;2023-10-13T19:46:24;14.18;;;6.22;;
41623;SDS011;27319;50.306;18.926;2023-10-13T19:50:25;9.38;;;5.82;;
41623;SDS011;27319;50.306;18.926;2023-10-13T19:54:25;17.35;;;6.82;;
41623;SDS011;27319;50.306;18.926;2023-10-13T19:58:26;16.60;;;7.07;;
41623;SDS011;27319;50.306;18.926;2023-10-13T20:02:27;14.77;;;7.35;;
41623;SDS011;27319;50.306;18.926;2023-10-13T20:06:31;19.83;;;7.60;;
41623;SDS011;27319;50.306;18.926;2023-10-13T20:10:32;10.80;;;6.35;;
41623;SDS011;27319;50.306;18.926;2023-10-13T20:14:35;15.95;;;6.57;;
41623;SDS011;27319;50.306;18.926;2023-10-13T20:18:36;10.85;;;6.18;;
41623;SDS011;27319;50.306;18.926;2023-10-13T20:22:37;14.68;;;6.45;;
41623;SDS011;27319;50.306;18.926;2023-10-13T20:26:37;15.32;;;6.75;;
41623;SDS011;27319;50.306;18.926;2023-10-13T20:30:38;12.77;;;6.97;;
41623;SDS011;27319;50.306;18.926;2023-10-13T20:34:42;13.00;;;6.43;;
41623;SDS011;27319;50.306;18.926;2023-10-13T20:38:42;15.57;;;7.53;;
41623;SDS011;27319;50.306;18.926;2023-10-13T20:42:44;13.02;;;8.18;;
41623;SDS011;27319;50.306;18.926;2023-10-13T20:46:44;15.40;;;7.20;;
41623;SDS011;27319;50.306;18.926;2023-10-13T20:50:45;13.55;;;6.47;;
41623;SDS011;27319;50.306;18.926;2023-10-13T20:54:46;12.73;;;6.32;;
41623;SDS011;27319;50.306;18.926;2023-10-13T20:58:46;14.68;;;7.45;;
41623;SDS011;27319;50.306;18.926;2023-10-13T21:02:54;18.17;;;6.72;;
41623;SDS011;27319;50.306;18.926;2023-10-13T21:06:51;13.13;;;6.97;;
41623;SDS011;27319;50.306;18.926;2023-10-13T21:10:52;13.63;;;7.15;;
41623;SDS011;27319;50.306;18.926;2023-10-13T21:14:32;16.52;;;8.25;;
41623;SDS011;27319;50.306;18.926;2023-10-13T21:18:36;17.92;;;7.90;;
41623;SDS011;27319;50.306;18.926;2023-10-13T21:22:37;15.65;;;7.15;;
41623;SDS011;27319;50.306;18.926;2023-10-13T21:26:38;15.27;;;7.35;;
41623;SDS011;27319;50.306;18.926;2023-10-13T21:30:39;14.63;;;7.07;;
41623;SDS011;27319;50.306;18.926;2023-10-13T21:34:48;13.05;;;7.45;;
41623;SDS011;27319;50.306;18.926;2023-10-13T21:38:50;14.38;;;7.65;;
41623;SDS011;27319;50.306;18.926;2023-10-13T21:42:50;15.20;;;7.78;;
41623;SDS011;27319;50.306;18.926;2023-10-13T21:46:51;17.80;;;7.13;;
41623;SDS011;27319;50.306;18.926;2023-10-13T21:50:52;15.65;;;8.45;;
41623;SDS011;27319;50.306;18.926;2023-10-13T21:54:52;16.65;;;8.18;;
41623;SDS011;27319;50.306;18.926;2023-10-13T21:58:54;12.63;;;6.93;;
41623;SDS011;27319;50.306;18.926;2023-10-13T22:02:54;15.65;;;9.18;;
41623;SDS011;27319;50.306;18.926;2023-10-13T22:06:55;18.05;;;8.18;;
41623;SDS011;27319;50.306;18.926;2023-10-13T22:10:55;13.82;;;7.93;;
41623;SDS011;27319;50.306;18.926;2023-10-13T22:14:56;19.95;;;7.78;;
41623;SDS011;27319;50.306;18.926;2023-10-13T22:18:57;17.48;;;8.50;;
41623;SDS011;27319;50.306;18.926;2023-10-13T22:22:58;13.73;;;7.97;;
41623;SDS011;27319;50.306;18.926;2023-10-13T22:26:59;20.77;;;9.85;;
41623;SDS011;27319;50.306;18.926;2023-10-13T22:31:00;15.82;;;8.55;;
41623;SDS011;27319;50.306;18.926;2023-10-13T22:35:00;16.80;;;9.27;;
41623;SDS011;27319;50.306;18.926;2023-10-13T22:39:01;20.90;;;12.18;;
41623;SDS011;27319;50.306;18.926;2023-10-13T22:43:01;16.50;;;8.65;;
41623;SDS011;27319;50.306;18.926;2023-10-13T22:47:02;17.08;;;8.73;;
41623;SDS011;27319;50.306;18.926;2023-10-13T22:51:03;17.30;;;9.10;;
41623;SDS011;27319;50.306;18.926;2023-10-13T22:55:04;17.05;;;8.77;;
41623;SDS011;27319;50.306;18.926;2023-10-13T22:59:05;17.42;;;8.43;;
41623;SDS011;27319;50.306;18.926;2023-10-13T23:03:15;17.35;;;7.97;;
41623;SDS011;27319;50.306;18.926;2023-10-13T23:07:18;13.43;;;7.75;;
41623;SDS011;27319;50.306;18.926;2023-10-13T23:11:22;12.80;;;6.78;;
41623;SDS011;27319;50.306;18.926;2023-10-13T23:15:25;10.82;;;5.35;;
41623;SDS011;27319;50.306;18.926;2023-10-13T23:19:26;17.00;;;5.90;;
41623;SDS011;27319;50.306;18.926;2023-10-13T23:23:26;16.05;;;5.78;;
41623;SDS011;27319;50.306;18.926;2023-10-13T23:27:27;10.90;;;5.85;;
41623;SDS011;27319;50.306;18.926;2023-10-13T23:31:28;10.20;;;5.95;;
41623;SDS011;27319;50.306;18.926;2023-10-13T23:35:29;12.98;;;6.03;;
41623;SDS011;27319;50.306;18.926;2023-10-13T23:39:29;12.52;;;6.97;;
41623;SDS011;27319;50.306;18.926;2023-10-13T23:43:30;11.20;;;6.38;;
41623;SDS011;27319;50.306;18.926;2023-10-13T23:47:33;11.75;;;6.90;;
41623;SDS011;27319;50.306;18.926;2023-10-13T23:51:34;14.95;;;6.40;;
41623;SDS011;27319;50.306;18.926;2023-10-13T23:55:35;11.07;;;6.03;;
41623;SDS011;27319;50.306;18.926;2023-10-13T23:59:27;10.50;;;6.20;;
